Keene, New York
Current Conditions -  °F | °C
As of 11:51 AM on Friday 24 Oct 2014 (Local Time) from KSLK Reporting Station
Overcast Overcast  
Wind Chill: 38°   Ceiling: 900
Heat Index: 42°   Visibility: 10mi
Dew Point: 39°   Wind: 6mph
Humidity: 89%   Direction: 20°NNE
Pressure: 29.86"   Gusts: NA
Location:  44.26°N, 73.79°W
Report Text: KSLK 241551Z AUTO 02005KT 10SM OVC009 06/04 A2986 RMK AO2 CIG 007V012 SLP121 T00560039
Loading
Personal Weather Stations






























Interactive Weather Map
Tropical Storm Tracking
New forecast layout! Learn more

10-Day Weather Forecast

Advertisements
Track Severe Weather on mobile